NASA419 KTTS-KTTS
Flight info
| Callsign | NASA419 |
|---|---|
| Flight time | 0h 1m |
| Altitude | 1000 |
| Route | VFR |
| Aircraft | UH1/L-SDGRY/C |
Departure
| Time | 2026-05-06 00:47 |
|---|---|
| Airport | Space Florida Launch and Landing Facility (KTTS) |
Arrival
| Time | 2026-05-06 00:49 |
|---|---|
| Airport | Space Florida Launch and Landing Facility (KTTS) |
| Time | Latitude | Longitude | Altitude | Speed | Heading |
|---|---|---|---|---|---|
| 2026-05-06 00:30 | 28.59990 | -80.68086 | 16 ft | 0 kts | 142° |
| 2026-05-06 00:33 | 28.59991 | -80.68086 | 16 ft | 0 kts | 142° |
| 2026-05-06 00:33 | 28.59991 | -80.68085 | 16 ft | 0 kts | 142° |
| 2026-05-06 00:40 | 28.59990 | -80.68085 | 16 ft | 1 kts | 143° |
| 2026-05-06 00:40 | 28.59976 | -80.68081 | 43 ft | 2 kts | 141° |
| 2026-05-06 00:41 | 28.59969 | -80.68074 | 59 ft | 1 kts | 148° |
| 2026-05-06 00:41 | 28.59960 | -80.68073 | 74 ft | 2 kts | 152° |
| 2026-05-06 00:41 | 28.59940 | -80.68067 | 56 ft | 3 kts | 140° |
| 2026-05-06 00:41 | 28.59929 | -80.68048 | 68 ft | 9 kts | 66° |
| 2026-05-06 00:42 | 28.59972 | -80.67964 | 83 ft | 12 kts | 56° |
| 2026-05-06 00:42 | 28.60020 | -80.67996 | 29 ft | 10 kts | 238° |
| 2026-05-06 00:42 | 28.60015 | -80.68021 | 22 ft | 1 kts | 155° |
| 2026-05-06 00:42 | 28.60014 | -80.68020 | 17 ft | 0 kts | 158° |
| 2026-05-06 00:43 | 28.60015 | -80.68020 | 17 ft | 0 kts | 158° |
| 2026-05-06 00:43 | 28.60015 | -80.68019 | 17 ft | 0 kts | 158° |
| 2026-05-06 00:44 | 28.60008 | -80.68025 | 30 ft | 2 kts | 144° |
| 2026-05-06 00:44 | 28.59993 | -80.68029 | 43 ft | 6 kts | 116° |
| 2026-05-06 00:45 | 28.59974 | -80.67988 | 72 ft | 7 kts | 4° |
| 2026-05-06 00:45 | 28.60117 | -80.68026 | 161 ft | 31 kts | 18° |
| 2026-05-06 00:45 | 28.60157 | -80.67845 | 239 ft | 41 kts | 136° |
| 2026-05-06 00:45 | 28.59914 | -80.67828 | 273 ft | 31 kts | 213° |
| 2026-05-06 00:46 | 28.59738 | -80.67977 | 276 ft | 24 kts | 128° |
| 2026-05-06 00:46 | 28.59642 | -80.67730 | 225 ft | 57 kts | 101° |
| 2026-05-06 00:46 | 28.59541 | -80.67157 | 256 ft | 83 kts | 95° |
| 2026-05-06 00:46 | 28.59400 | -80.66439 | 391 ft | 99 kts | 94° |
| 2026-05-06 00:47 | 28.59315 | -80.65658 | 451 ft | 101 kts | 85° |
| 2026-05-06 00:47 | 28.59303 | -80.64893 | 462 ft | 93 kts | 96° |
| 2026-05-06 00:47 | 28.58888 | -80.64445 | 567 ft | 91 kts | 159° |
| 2026-05-06 00:47 | 28.58244 | -80.64413 | 650 ft | 91 kts | 194° |
| 2026-05-06 00:48 | 28.57890 | -80.64989 | 703 ft | 100 kts | 264° |
| 2026-05-06 00:48 | 28.58185 | -80.65682 | 716 ft | 106 kts | 332° |
| 2026-05-06 00:48 | 28.58915 | -80.65809 | 658 ft | 109 kts | 12° |
| 2026-05-06 00:48 | 28.59533 | -80.65359 | 643 ft | 103 kts | 69° |
| 2026-05-06 00:49 | 28.59320 | -80.64661 | 600 ft | 105 kts | 147° |
| 2026-05-06 00:49 | 28.58700 | -80.64576 | 572 ft | 66 kts | 178° |
| 2026-05-06 00:49 | 28.58404 | -80.64631 | 435 ft | 24 kts | 200° |
| 2026-05-06 00:49 | 28.58327 | -80.64684 | 355 ft | 5 kts | 229° |
| 2026-05-06 00:50 | 28.58301 | -80.64733 | 240 ft | 5 kts | 227° |
| 2026-05-06 00:50 | 28.58288 | -80.64765 | 114 ft | 5 kts | 226° |
| 2026-05-06 00:50 | 28.58279 | -80.64790 | 29 ft | 1 kts | 226° |
| 2026-05-06 00:50 | 28.58279 | -80.64793 | 20 ft | 1 kts | 221° |
| 2026-05-06 00:51 | 28.58274 | -80.64802 | 46 ft | 4 kts | 211° |
| 2026-05-06 00:51 | 28.58266 | -80.64776 | 105 ft | 20 kts | 65° |
| 2026-05-06 00:51 | 28.58358 | -80.64935 | 223 ft | 64 kts | 251° |
| 2026-05-06 00:51 | 28.58279 | -80.65562 | 282 ft | 96 kts | 263° |
| 2026-05-06 00:52 | 28.58247 | -80.66477 | 315 ft | 129 kts | 260° |
| 2026-05-06 00:52 | 28.58113 | -80.67533 | 317 ft | 139 kts | 255° |
| 2026-05-06 00:52 | 28.57965 | -80.68668 | 375 ft | 151 kts | 261° |
| 2026-05-06 00:52 | 28.57837 | -80.69868 | 424 ft | 155 kts | 253° |
| 2026-05-06 00:53 | 28.57557 | -80.71078 | 386 ft | 162 kts | 243° |
| 2026-05-06 00:53 | 28.57077 | -80.72212 | 476 ft | 159 kts | 227° |
| 2026-05-06 00:53 | 28.56373 | -80.73171 | 528 ft | 157 kts | 207° |
| 2026-05-06 00:53 | 28.55468 | -80.73067 | 624 ft | 141 kts | 126° |
| 2026-05-06 00:54 | 28.55059 | -80.72071 | 584 ft | 124 kts | 91° |
| 2026-05-06 00:54 | 28.55074 | -80.71175 | 453 ft | 106 kts | 71° |
| 2026-05-06 00:54 | 28.55320 | -80.70423 | 301 ft | 99 kts | 54° |
| 2026-05-06 00:54 | 28.55680 | -80.69750 | 149 ft | 100 kts | 55° |
| 2026-05-06 00:55 | 28.56059 | -80.69048 | 216 ft | 107 kts | 43° |
| 2026-05-06 00:55 | 28.56723 | -80.68581 | 251 ft | 116 kts | 15° |
| 2026-05-06 00:55 | 28.57478 | -80.68233 | 241 ft | 124 kts | 25° |
| 2026-05-06 00:55 | 28.58237 | -80.67758 | 285 ft | 123 kts | 26° |
| 2026-05-06 00:56 | 28.59007 | -80.67290 | 394 ft | 129 kts | 25° |
| 2026-05-06 00:56 | 28.59853 | -80.66880 | 456 ft | 130 kts | 29° |
| 2026-05-06 00:56 | 28.60009 | -80.65981 | 499 ft | 135 kts | 107° |
| 2026-05-06 00:56 | 28.59762 | -80.64929 | 517 ft | 130 kts | 90° |
| 2026-05-06 00:57 | 28.59757 | -80.63997 | 483 ft | 113 kts | 75° |
| 2026-05-06 00:57 | 28.60033 | -80.63152 | 378 ft | 114 kts | 57° |
| 2026-05-06 00:57 | 28.60344 | -80.62347 | 336 ft | 106 kts | 66° |
| 2026-05-06 00:57 | 28.60359 | -80.61587 | 389 ft | 95 kts | 107° |
| 2026-05-06 00:58 | 28.60095 | -80.60899 | 417 ft | 96 kts | 100° |
| 2026-05-06 00:58 | 28.59930 | -80.60143 | 398 ft | 100 kts | 88° |
| 2026-05-06 00:58 | 28.59937 | -80.59367 | 336 ft | 97 kts | 80° |
| 2026-05-06 00:58 | 28.59815 | -80.58674 | 363 ft | 85 kts | 112° |
| 2026-05-06 00:59 | 28.59418 | -80.58191 | 380 ft | 85 kts | 129° |
| 2026-05-06 00:59 | 28.59094 | -80.57677 | 359 ft | 85 kts | 77° |
| 2026-05-06 00:59 | 28.59597 | -80.57370 | 285 ft | 104 kts | 340° |
| 2026-05-06 00:59 | 28.60158 | -80.57861 | 336 ft | 104 kts | 306° |
| 2026-05-06 01:00 | 28.60635 | -80.58505 | 300 ft | 109 kts | 297° |
| 2026-05-06 01:00 | 28.61025 | -80.59225 | 342 ft | 109 kts | 291° |
| 2026-05-06 01:00 | 28.61330 | -80.60015 | 363 ft | 109 kts | 281° |
| 2026-05-06 01:00 | 28.61573 | -80.60801 | 398 ft | 104 kts | 282° |
| 2026-05-06 01:01 | 28.61768 | -80.61605 | 392 ft | 105 kts | 274° |
| 2026-05-06 01:01 | 28.61922 | -80.62386 | 505 ft | 97 kts | 292° |
| 2026-05-06 01:01 | 28.62463 | -80.62790 | 499 ft | 102 kts | 339° |
| 2026-05-06 01:01 | 28.63159 | -80.62923 | 576 ft | 104 kts | 352° |
| 2026-05-06 01:02 | 28.63913 | -80.62911 | 526 ft | 110 kts | 24° |
| 2026-05-06 01:02 | 28.64641 | -80.62522 | 416 ft | 120 kts | 13° |
| 2026-05-06 01:02 | 28.65458 | -80.62278 | 335 ft | 126 kts | 11° |
| 2026-05-06 01:02 | 28.66320 | -80.62041 | 300 ft | 127 kts | 11° |
| 2026-05-06 01:03 | 28.67142 | -80.61778 | 409 ft | 112 kts | 10° |
| 2026-05-06 01:03 | 28.67828 | -80.61635 | 832 ft | 86 kts | 22° |
| 2026-05-06 01:03 | 28.68116 | -80.61194 | 1221 ft | 70 kts | 108° |
| 2026-05-06 01:03 | 28.67861 | -80.60673 | 1511 ft | 88 kts | 142° |
| 2026-05-06 01:04 | 28.67229 | -80.60313 | 1843 ft | 117 kts | 147° |
| 2026-05-06 01:04 | 28.66494 | -80.59852 | 2029 ft | 119 kts | 135° |
| 2026-05-06 01:04 | 28.65847 | -80.59302 | 2192 ft | 110 kts | 131° |
| 2026-05-06 01:04 | 28.65246 | -80.58825 | 2557 ft | 104 kts | 145° |
| 2026-05-06 01:05 | 28.64534 | -80.58595 | 2786 ft | 113 kts | 161° |
| 2026-05-06 01:05 | 28.63710 | -80.58454 | 2806 ft | 127 kts | 160° |
| 2026-05-06 01:05 | 28.62850 | -80.58096 | 2642 ft | 139 kts | 141° |
| 2026-05-06 01:05 | 28.61940 | -80.57743 | 2482 ft | 122 kts | 184° |
| 2026-05-06 01:06 | 28.61495 | -80.58371 | 2366 ft | 109 kts | 283° |
| 2026-05-06 01:06 | 28.61686 | -80.59216 | 2308 ft | 113 kts | 270° |
| 2026-05-06 01:06 | 28.62130 | -80.59879 | 2248 ft | 115 kts | 313° |
| 2026-05-06 01:06 | 28.62529 | -80.60751 | 1871 ft | 135 kts | 251° |
| 2026-05-06 01:07 | 28.61966 | -80.61604 | 1611 ft | 149 kts | 205° |
| 2026-05-06 01:07 | 28.61042 | -80.62250 | 1393 ft | 149 kts | 198° |
| 2026-05-06 01:07 | 28.60201 | -80.62821 | 1119 ft | 136 kts | 208° |
| 2026-05-06 01:07 | 28.59506 | -80.63493 | 1007 ft | 128 kts | 205° |
| 2026-05-06 01:08 | 28.58793 | -80.64090 | 924 ft | 127 kts | 201° |
| 2026-05-06 01:08 | 28.58023 | -80.64563 | 890 ft | 124 kts | 192° |
| 2026-05-06 01:08 | 28.57191 | -80.64892 | 775 ft | 130 kts | 184° |
| 2026-05-06 01:08 | 28.56317 | -80.65166 | 792 ft | 130 kts | 181° |
| 2026-05-06 01:09 | 28.55439 | -80.65430 | 767 ft | 134 kts | 187° |
| 2026-05-06 01:09 | 28.54567 | -80.65771 | 802 ft | 132 kts | 184° |
| 2026-05-06 01:09 | 28.53673 | -80.66027 | 846 ft | 136 kts | 184° |
| 2026-05-06 01:09 | 28.52807 | -80.66279 | 812 ft | 115 kts | 194° |
| 2026-05-06 01:10 | 28.52269 | -80.66855 | 618 ft | 102 kts | 234° |
| 2026-05-06 01:10 | 28.52106 | -80.67405 | 564 ft | 35 kts | 249° |
| 2026-05-06 01:10 | 28.52091 | -80.67503 | 543 ft | 23 kts | 254° |
| 2026-05-06 01:10 | 28.52085 | -80.67678 | 483 ft | 23 kts | 280° |
| 2026-05-06 01:11 | 28.52202 | -80.67708 | 428 ft | 21 kts | 28° |
| 2026-05-06 01:11 | 28.52265 | -80.67670 | 391 ft | 4 kts | 34° |
| 2026-05-06 01:11 | 28.52290 | -80.67642 | 320 ft | 7 kts | 41° |
| 2026-05-06 01:11 | 28.52334 | -80.67572 | 179 ft | 18 kts | 52° |
| 2026-05-06 01:12 | 28.52319 | -80.67412 | 263 ft | 29 kts | 117° |
| 2026-05-06 01:12 | 28.52084 | -80.67312 | 212 ft | 52 kts | 195° |
| 2026-05-06 01:12 | 28.51987 | -80.67749 | 246 ft | 50 kts | 273° |
| 2026-05-06 01:12 | 28.51978 | -80.68078 | 208 ft | 37 kts | 214° |
| 2026-05-06 01:13 | 28.51909 | -80.67968 | 210 ft | 42 kts | 343° |
| 2026-05-06 01:13 | 28.52191 | -80.68321 | 276 ft | 66 kts | 311° |
| 2026-05-06 01:13 | 28.52606 | -80.68380 | 434 ft | 70 kts | 15° |
| 2026-05-06 01:13 | 28.53258 | -80.68082 | 258 ft | 123 kts | 19° |
| 2026-05-06 01:14 | 28.55099 | -80.67716 | 158 ft | 147 kts | 346° |
| 2026-05-06 01:14 | 28.56052 | -80.67796 | 287 ft | 135 kts | 358° |
| 2026-05-06 01:14 | 28.56962 | -80.67832 | 349 ft | 131 kts | 352° |
| 2026-05-06 01:15 | 28.57876 | -80.67897 | 314 ft | 130 kts | 352° |
| 2026-05-06 01:15 | 28.58717 | -80.68066 | 331 ft | 117 kts | 347° |
| 2026-05-06 01:15 | 28.59453 | -80.68130 | 393 ft | 86 kts | 354° |
| 2026-05-06 01:15 | 28.59867 | -80.68129 | 248 ft | 30 kts | 2° |
| 2026-05-06 01:16 | 28.59983 | -80.68116 | 201 ft | 12 kts | 23° |
| 2026-05-06 01:16 | 28.59987 | -80.68078 | 106 ft | 5 kts | 150° |
| 2026-05-06 01:16 | 28.59974 | -80.68066 | 59 ft | 2 kts | 149° |
| 2026-05-06 01:16 | 28.59969 | -80.68069 | 31 ft | 2 kts | 153° |
| 2026-05-06 01:17 | 28.59971 | -80.68074 | 24 ft | 0 kts | 146° |
| 2026-05-06 01:17 | 28.59970 | -80.68074 | 20 ft | 0 kts | 144° |
| 2026-05-06 01:18 | 28.59971 | -80.68074 | 20 ft | 0 kts | 145° |
| 2026-05-06 01:21 | 28.59971 | -80.68073 | 20 ft | 0 kts | 145° |